Hattiesburg Laurel Regional Airport
KPIB : now visible

Airfield :











YOU CAN JOIN US ON...

 
LOGIN :

Register | Disclaimer

   EN    FR    IT 

 









Legend :    VFR   Marginal VFR   IFR   Intensive IFR   Very Intensive IFR
Visi :
Ceiling :
>= 8 km
>= 3000ft
5 to 8 km
1000 to 3000 ft
1500m to 5 km
500 to 1000 ft
800 to 1500m
200 to 500 ft
< 800m
< 200 ft
Symbols :   Thunderstorms  Fog  Heavy snow  Heavy precipitations  Wind > 20 kt







- Airport Elevation : 298 ft
- IATA code : PIB


KPIB - Hattiesburg Laurel Regional

CURRENT METAR :
  • 181556Z AUTO 16013KT 10SM BKN020 BKN025 24/19 A2986 RMK AO2 SLP108 T02440194

EXPIRED METARs :
  • 181456Z AUTO 16013G18KT 10SM SCT015 BKN021 24/20 A2987 RMK AO2 SLP113 T02390200 50011
  • 181449Z AUTO 16012G17KT 10SM BKN015 BKN021 24/19 A2987 RMK AO2
  • 181417Z AUTO 16009KT 10SM BKN011 BKN026 23/19 A2989 RMK AO2
  • 181404Z AUTO 17007KT 10SM SCT009 SCT018 BKN026 22/19 A2989 RMK AO2
  • 181320Z AUTO 15006KT 10SM FEW007 BKN055 20/19 A2989 RMK AO2 $

TAF KPIB
Valid from the 18 at 12:00 until the 19 at 12:00 UTC


181120Z 1812/1912 16005KT P6SM OVC015
FM181500 16015G22KT P6SM BKN030
FM182000 17020G27KT P6SM VCTS OVC020CB
FM182200 20040G50KT 1SM +TSRA BR OVC015CB
FM190000 25019G25KT 4SM RA BR OVC007
FM190400 31014G21KT P6SM OVC015
KZHU FIR / North America



MET'MAP, your aeronautical weather chart ! - Copyright ORBIFLY December 2007 - Disclaimer

ORBIFLY MET'MAP TEAM :

Programming & Development : Alexandra Zaïnal
Concept & Development : Baudouin d'Aumeries
Co-Development & Prog : Marc-Olivier Méhu
Technical & hardware support : Manuel Goepfert

Contact : metmap@orbifly.com




SOURCES & CREDITS :

   NOAA       Earth
Advisory